Terminal Aerodrome Forecast
Issued by NWS

Home | Current Version | Previous Version | Text Only | Print | Product List | Glossary On
Versions: 1 2 3 4 5 6 7 8 9 10 11 12 13 14 15 16 17 18 19 20 21 22 23 24 25 26 27 28 29
000
FTUS44 KHGX 281149 RRA
TAFSGR
TAF
KSGR 281149Z 2812/2912 17003KT P6SM SKC
     FM281500 17008KT P6SM SCT020
     FM282100 15012KT P6SM VCTS BKN035CB
     FM290000 14005KT P6SM SCT015
     FM290300 14003KT 5SM BR SCT008 BKN015
      TEMPO 2909/2912 3SM BR=

USA.gov is the U.S. government's official web portal to all federal, state and local government web resources and services.